createdAt,value
2018-12-15T14:28:29.803Z,95.40
2018-12-15T14:29:44.309Z,90.10
2018-12-15T14:30:57.924Z,90.30
2018-12-15T14:32:11.203Z,90.50
2018-12-15T14:33:24.412Z,90.60
2018-12-15T14:34:48.698Z,90.90
2018-12-15T14:36:04.420Z,90.90
2018-12-15T14:37:17.404Z,91.20
2018-12-15T14:38:40.483Z,91.30
2018-12-15T14:39:55.999Z,91.20
2018-12-15T14:41:13.396Z,91.30
2018-12-15T14:42:29.812Z,91.40
2018-12-15T14:43:42.673Z,91.40
2018-12-15T14:44:55.042Z,91.60
2018-12-15T14:46:15.696Z,91.60
2018-12-15T14:47:31.890Z,91.80
2018-12-15T14:48:44.536Z,91.70
2018-12-15T14:49:58.359Z,91.90
2018-12-15T14:51:18.400Z,92.00
2018-12-15T14:52:34.123Z,92.10
2018-12-15T14:53:52.303Z,92.20
2018-12-15T14:55:06.105Z,92.70
2018-12-15T14:56:22.558Z,92.80
2018-12-15T14:57:40.701Z,92.70
2018-12-15T14:58:58.188Z,92.50
2018-12-15T15:00:17.429Z,92.70
2018-12-15T15:01:30.198Z,92.60
2018-12-15T15:02:45.905Z,92.40
2018-12-15T15:04:02.185Z,92.60
2018-12-15T15:05:14.910Z,92.70
2018-12-15T15:06:28.534Z,92.60
2018-12-15T15:07:41.761Z,92.40
2018-12-15T15:08:55.289Z,92.50
2018-12-15T15:10:08.550Z,92.60
2018-12-15T15:11:22.135Z,92.70
2018-12-15T15:12:39.868Z,92.70
2018-12-15T15:13:52.451Z,92.70
2018-12-15T15:15:06.788Z,92.60
2018-12-15T15:16:20.260Z,92.60
2018-12-15T15:17:39.298Z,92.80
2018-12-15T15:18:54.777Z,93.10
2018-12-15T15:20:09.730Z,93.20
2018-12-15T15:21:25.301Z,93.40
2018-12-15T15:22:41.053Z,93.20
2018-12-15T15:23:56.669Z,93.20
2018-12-15T15:25:11.868Z,93.20
2018-12-15T15:26:29.000Z,93.30
2018-12-15T15:27:46.537Z,93.00
2018-12-15T15:28:59.200Z,93.20
2018-12-15T15:30:14.860Z,93.20
2018-12-15T15:31:28.033Z,92.90
2018-12-15T15:32:43.589Z,93.20
2018-12-15T15:33:56.454Z,93.30
2018-12-15T15:35:10.708Z,93.60
2018-12-15T15:36:27.140Z,93.90
2018-12-15T15:37:42.942Z,93.70
2018-12-15T15:38:55.953Z,93.80
2018-12-15T15:40:09.044Z,93.50
2018-12-15T15:41:25.554Z,93.20
2018-12-15T15:42:39.532Z,93.40
2018-12-15T15:43:52.683Z,93.30
2018-12-15T15:45:10.492Z,93.40
2018-12-15T15:46:26.945Z,93.30
2018-12-15T15:47:42.757Z,93.60
2018-12-15T15:48:57.648Z,93.60
2018-12-15T15:50:08.419Z,93.60
2018-12-15T15:51:21.688Z,93.50
2018-12-15T15:52:34.400Z,93.40
2018-12-15T15:53:47.304Z,93.40
2018-12-15T15:55:00.467Z,93.60
2018-12-15T15:56:17.047Z,93.80
2018-12-15T15:57:33.095Z,93.60
2018-12-15T15:58:48.981Z,93.50
2018-12-15T16:00:20.418Z,93.50
2018-12-15T16:01:41.733Z,93.50
2018-12-15T16:02:59.431Z,93.50
2018-12-15T16:04:14.292Z,93.70
2018-12-15T16:05:34.168Z,93.70
2018-12-15T16:06:49.262Z,93.70
2018-12-15T16:08:08.361Z,93.70
2018-12-15T16:09:22.640Z,93.80
2018-12-15T16:10:54.230Z,94.00
2018-12-15T16:12:09.348Z,94.00
2018-12-15T16:13:23.000Z,93.90
2018-12-15T16:14:39.702Z,93.90
2018-12-15T16:15:54.135Z,93.70
2018-12-15T16:17:07.732Z,93.60
2018-12-15T16:18:25.393Z,93.40
2018-12-15T16:19:38.339Z,93.50
2018-12-15T16:20:52.114Z,93.60
2018-12-15T16:22:05.117Z,93.80
2018-12-15T16:23:19.235Z,93.80
2018-12-15T16:24:37.380Z,93.90
2018-12-15T16:25:50.904Z,94.10
2018-12-15T16:27:07.100Z,93.90
2018-12-15T16:28:21.401Z,93.90
2018-12-15T16:29:44.605Z,93.90
2018-12-15T16:31:03.738Z,93.80
2018-12-15T16:32:25.802Z,93.70
2018-12-15T16:33:44.562Z,93.70
2018-12-15T16:35:01.978Z,94.00
2018-12-15T16:36:26.708Z,93.90
2018-12-15T16:37:49.787Z,93.70
2018-12-15T16:39:10.681Z,93.90
2018-12-15T16:42:08.984Z,94.00
2018-12-15T16:43:26.621Z,94.00
2018-12-15T16:45:01.668Z,93.90
2018-12-15T16:46:17.013Z,93.90
2018-12-15T16:47:29.005Z,94.00
2018-12-15T16:48:53.488Z,94.00
2018-12-15T16:50:16.157Z,94.10
2018-12-15T16:51:35.787Z,94.10
2018-12-15T17:06:45.925Z,93.80
2018-12-15T17:08:03.478Z,93.80
2018-12-15T17:09:26.088Z,93.80
2018-12-15T17:11:03.346Z,93.60
2018-12-15T17:12:23.098Z,93.70
2018-12-15T17:13:39.746Z,93.30
2018-12-15T17:15:02.273Z,93.30
2018-12-15T17:16:19.113Z,93.20
2018-12-15T17:17:40.402Z,93.00
2018-12-15T17:18:55.133Z,93.10
2018-12-15T17:20:09.795Z,93.30
2018-12-15T17:21:33.129Z,93.40
2018-12-15T17:22:50.529Z,93.20
2018-12-15T17:24:07.631Z,93.00
2018-12-15T17:25:23.028Z,93.00
2018-12-15T17:26:39.503Z,93.00
2018-12-15T17:27:57.692Z,93.10
2018-12-15T17:29:19.855Z,93.00
2018-12-15T17:30:36.365Z,93.10
2018-12-15T17:31:58.782Z,93.10
2018-12-15T17:33:22.614Z,93.40
2018-12-15T17:34:41.899Z,93.50
2018-12-15T17:36:04.681Z,93.00
2018-12-15T17:37:24.962Z,92.90
2018-12-15T17:38:50.352Z,93.30
2018-12-15T17:40:15.569Z,93.30
2018-12-15T17:41:34.805Z,93.00
2018-12-15T17:42:48.560Z,93.10
2018-12-15T17:44:15.405Z,93.10
2018-12-15T17:45:33.420Z,93.10
2018-12-15T17:46:55.702Z,93.20
2018-12-15T17:48:13.798Z,93.00
2018-12-15T17:49:28.693Z,93.00
2018-12-15T17:50:43.453Z,92.60
2018-12-15T17:51:59.036Z,92.50
2018-12-15T17:53:12.139Z,92.40
2018-12-15T17:54:27.784Z,92.30
2018-12-15T17:55:47.705Z,92.60
2018-12-15T17:57:03.326Z,92.80
2018-12-15T17:58:23.562Z,92.90
2018-12-15T17:59:36.808Z,92.70
2018-12-15T18:00:58.096Z,92.60
2018-12-15T18:02:17.945Z,92.70
2018-12-15T18:03:31.200Z,92.60
2018-12-15T18:05:05.800Z,92.80
2018-12-15T18:06:22.236Z,92.70
2018-12-15T18:07:36.117Z,92.50
2018-12-15T18:18:40.104Z,92.80
2018-12-15T18:20:12.440Z,92.70
2018-12-15T18:21:28.144Z,93.00
2018-12-15T18:22:47.170Z,92.70
2018-12-15T18:24:01.059Z,92.50
2018-12-15T18:25:20.461Z,92.60
2018-12-15T18:26:39.842Z,92.70
2018-12-15T18:27:58.779Z,92.90
2018-12-15T18:29:21.250Z,93.00
2018-12-15T18:30:36.212Z,92.50
2018-12-15T18:50:52.463Z,92.50
2018-12-15T18:52:10.669Z,92.20
2018-12-15T18:53:31.876Z,92.30
2018-12-15T18:54:56.812Z,92.00
2018-12-15T18:56:30.672Z,92.10
2018-12-15T18:57:44.602Z,92.30
2018-12-15T18:59:05.218Z,92.50
2018-12-15T19:00:24.063Z,92.30
2018-12-15T19:11:30.975Z,92.20
2018-12-15T19:12:46.472Z,92.00
2018-12-15T19:14:11.444Z,92.30
2018-12-15T19:15:29.575Z,91.80
2018-12-15T19:16:53.155Z,92.30
2018-12-15T19:18:10.033Z,92.10
2018-12-15T19:19:26.723Z,92.20
2018-12-15T19:20:46.902Z,92.30
2018-12-15T19:22:01.161Z,92.70
2018-12-15T19:23:17.609Z,92.20
2018-12-15T19:24:32.068Z,92.20
2018-12-15T19:25:48.721Z,92.20
2018-12-15T19:27:02.433Z,92.40
2018-12-15T19:28:15.796Z,92.30
2018-12-15T19:29:33.275Z,92.40
2018-12-15T19:30:46.843Z,92.40
2018-12-15T19:32:12.323Z,92.50
2018-12-15T19:33:32.556Z,92.70
2018-12-15T19:34:52.255Z,92.70
2018-12-15T19:36:05.226Z,92.40
2018-12-15T19:37:24.456Z,92.50
2018-12-15T19:38:37.993Z,92.00
2018-12-15T19:39:51.222Z,92.00
2018-12-15T19:41:06.681Z,92.00
2018-12-15T19:42:24.264Z,92.20
2018-12-15T19:43:38.395Z,92.20
2018-12-15T19:45:12.782Z,92.30
2018-12-15T19:46:27.221Z,92.20
2018-12-15T19:47:41.573Z,92.30
2018-12-15T19:48:59.728Z,92.30
2018-12-15T19:50:15.858Z,92.40
2018-12-15T19:53:33.686Z,92.10
2018-12-15T19:55:57.220Z,92.30
2018-12-15T19:57:11.049Z,92.40
2018-12-15T19:58:24.760Z,92.20
2018-12-15T19:59:38.708Z,92.20
2018-12-15T20:01:02.160Z,92.30
2018-12-15T20:02:15.381Z,92.30
2018-12-15T20:03:38.915Z,92.30
2018-12-15T20:04:53.055Z,92.30
2018-12-15T20:06:17.457Z,92.20
2018-12-15T20:07:34.150Z,92.10
2018-12-15T20:08:59.629Z,92.20
2018-12-15T20:10:17.657Z,92.20
2018-12-15T20:11:34.542Z,92.00
2018-12-15T20:12:48.332Z,91.90
2018-12-15T20:14:02.493Z,92.10
2018-12-15T20:15:16.056Z,92.10
2018-12-15T20:16:28.905Z,92.40
2018-12-15T20:17:47.072Z,92.00
2018-12-15T20:19:01.303Z,91.90
2018-12-15T20:20:22.495Z,91.60
2018-12-15T20:21:37.978Z,92.00
2018-12-15T20:22:51.950Z,92.00
2018-12-15T20:24:12.385Z,92.00
2018-12-15T20:25:26.255Z,92.20
2018-12-15T20:26:40.056Z,92.20
2018-12-15T20:27:56.969Z,92.00
2018-12-15T20:29:12.268Z,92.10
2018-12-15T20:30:32.986Z,91.80
2018-12-15T20:31:46.882Z,91.70
2018-12-15T20:33:01.881Z,91.90
2018-12-15T20:34:15.961Z,92.30
2018-12-15T20:35:31.952Z,92.50
2018-12-15T20:36:48.308Z,91.80
2018-12-15T20:38:04.606Z,91.80
2018-12-15T20:39:50.015Z,91.80
2018-12-15T20:41:03.836Z,92.10
2018-12-15T20:42:18.238Z,92.30
2018-12-15T20:43:33.236Z,92.30
2018-12-15T20:44:46.833Z,92.00
2018-12-15T20:46:06.778Z,91.60
2018-12-15T20:47:27.970Z,91.60
2018-12-15T20:48:41.702Z,91.50
2018-12-15T20:49:55.536Z,91.70
2018-12-15T20:51:11.238Z,91.60
2018-12-15T20:52:31.727Z,91.10
2018-12-15T20:53:53.518Z,91.30
2018-12-15T20:55:11.975Z,90.90
2018-12-15T20:59:04.989Z,91.30
2018-12-15T21:00:18.793Z,91.40
2018-12-15T21:01:33.194Z,91.50
2018-12-15T21:02:47.089Z,91.60
2018-12-15T21:04:02.905Z,91.30
2018-12-15T21:05:18.857Z,91.50
2018-12-15T21:06:32.296Z,91.30
2018-12-15T21:07:51.516Z,91.30
2018-12-15T21:09:06.476Z,91.30
2018-12-15T21:10:19.542Z,91.50
2018-12-15T21:11:34.742Z,91.40
2018-12-15T21:12:54.833Z,91.20
2018-12-15T21:14:08.747Z,91.50
2018-12-15T21:15:26.841Z,90.90
2018-12-15T21:16:44.105Z,90.80
2018-12-15T21:31:59.152Z,91.20
2018-12-15T21:33:13.402Z,91.40
2018-12-15T21:34:26.925Z,91.20
2018-12-15T21:35:41.105Z,91.40
2018-12-15T21:38:21.085Z,91.70
2018-12-15T21:39:35.514Z,91.80
2018-12-15T21:40:49.217Z,91.50
2018-12-15T21:42:07.795Z,91.50
2018-12-15T21:43:22.233Z,91.40
2018-12-15T21:44:35.793Z,91.20
2018-12-15T21:45:48.605Z,91.30
2018-12-15T21:47:01.596Z,91.20
2018-12-15T21:48:14.344Z,91.20
2018-12-15T21:49:27.432Z,91.20
2018-12-15T21:50:42.021Z,91.20
2018-12-15T21:51:56.392Z,91.30
2018-12-15T21:53:16.894Z,90.90
2018-12-15T21:54:30.493Z,91.10
2018-12-15T21:55:48.493Z,91.10
2018-12-15T21:57:02.209Z,91.10
2018-12-15T21:58:15.453Z,91.00
2018-12-15T21:59:29.172Z,91.10
2018-12-15T22:00:42.293Z,90.90
2018-12-15T22:01:55.145Z,91.10
2018-12-15T22:03:07.978Z,90.80
2018-12-15T22:04:20.972Z,91.00
2018-12-15T22:05:34.005Z,91.00
2018-12-15T22:06:49.796Z,91.00
2018-12-15T22:08:03.477Z,91.20
2018-12-15T22:09:15.985Z,91.20
2018-12-15T22:10:28.858Z,91.20
2018-12-15T22:11:42.006Z,91.10
2018-12-15T22:12:58.977Z,91.10
2018-12-15T22:14:12.373Z,91.10
2018-12-15T22:15:25.697Z,91.20
2018-12-15T22:16:38.521Z,91.30
2018-12-15T22:17:47.410Z,91.30
2018-12-15T22:19:00.151Z,91.90
2018-12-15T22:20:14.957Z,91.10
2018-12-15T22:21:27.672Z,91.20
2018-12-15T22:22:40.840Z,91.40
2018-12-15T22:23:53.997Z,91.40
2018-12-15T22:25:11.946Z,91.50
2018-12-15T22:26:24.549Z,91.50
2018-12-15T22:27:45.154Z,91.40
2018-12-15T22:28:59.473Z,91.50
2018-12-15T22:30:14.296Z,91.10
2018-12-15T22:31:27.789Z,91.30
2018-12-15T22:32:44.863Z,91.20
2018-12-15T22:33:59.202Z,91.40
2018-12-15T22:35:18.543Z,91.20
2018-12-15T22:36:32.934Z,91.40
2018-12-15T22:37:46.909Z,91.50
2018-12-15T22:39:02.741Z,91.70
2018-12-15T22:40:18.747Z,91.80
2018-12-15T22:41:33.275Z,91.70
2018-12-15T22:42:46.876Z,91.80
2018-12-15T22:44:00.306Z,92.00
2018-12-15T22:45:16.751Z,91.90
2018-12-15T22:46:32.402Z,92.10
2018-12-15T22:47:48.483Z,92.00
2018-12-15T22:49:03.393Z,91.80
2018-12-15T22:50:17.715Z,92.20
2018-12-15T22:51:33.313Z,92.30
2018-12-15T22:52:45.989Z,92.30
2018-12-15T22:53:58.905Z,92.30
2018-12-15T22:55:11.837Z,92.50
2018-12-15T22:56:24.760Z,92.70
2018-12-15T22:57:40.298Z,92.40
2018-12-15T22:58:54.896Z,92.60
2018-12-15T23:00:23.660Z,92.70
2018-12-15T23:01:44.246Z,93.00
2018-12-15T23:03:01.754Z,92.90
2018-12-15T23:04:18.129Z,93.10
2018-12-15T23:05:34.548Z,92.90
2018-12-15T23:06:53.275Z,92.80
2018-12-15T23:08:08.409Z,92.90
2018-12-15T23:09:24.814Z,93.30
2018-12-15T23:10:40.895Z,93.30
2018-12-15T23:12:01.887Z,93.40
2018-12-15T23:13:19.677Z,93.50
2018-12-15T23:14:34.901Z,93.60
2018-12-15T23:15:50.469Z,94.00
2018-12-15T23:17:04.965Z,94.10
2018-12-15T23:18:21.048Z,94.20
2018-12-15T23:19:36.986Z,94.40
2018-12-15T23:20:51.369Z,94.50
2018-12-15T23:22:16.335Z,94.40
2018-12-15T23:23:32.222Z,94.80
2018-12-15T23:24:57.211Z,95.00
2018-12-15T23:26:12.880Z,95.00
2018-12-15T23:27:34.128Z,95.20
2018-12-15T23:28:48.137Z,95.00
2018-12-15T23:30:04.184Z,95.00
2018-12-15T23:31:16.929Z,94.80
2018-12-15T23:32:30.077Z,95.20
2018-12-15T23:33:50.712Z,95.10
2018-12-15T23:35:05.988Z,95.00
2018-12-15T23:36:21.529Z,95.00
2018-12-15T23:37:38.860Z,95.10
2018-12-15T23:38:54.318Z,95.20
2018-12-15T23:40:11.394Z,95.20
2018-12-15T23:41:25.999Z,95.00
2018-12-15T23:42:47.261Z,95.10
2018-12-15T23:44:02.243Z,95.10
2018-12-15T23:45:15.028Z,95.40
2018-12-15T23:46:28.935Z,95.30
2018-12-15T23:47:42.047Z,95.20
2018-12-15T23:48:54.656Z,95.30
2018-12-15T23:50:09.857Z,95.50
2018-12-15T23:51:25.745Z,95.70
2018-12-15T23:52:44.724Z,95.80
2018-12-15T23:54:00.380Z,95.80
2018-12-15T23:55:17.418Z,95.90
2018-12-15T23:56:33.130Z,96.00
2018-12-15T23:57:47.673Z,96.00
2018-12-15T23:59:02.094Z,95.90
